sensor_id;sensor_type;location;lat;lon;timestamp;P1;durP1;ratioP1;P2;durP2;ratioP2
23181;SDS011;11759;51.282;6.642;2023-02-01T00:00:26;28.98;;;9.70;;
23181;SDS011;11759;51.282;6.642;2023-02-01T00:02:53;31.85;;;9.95;;
23181;SDS011;11759;51.282;6.642;2023-02-01T00:05:19;29.98;;;10.52;;
23181;SDS011;11759;51.282;6.642;2023-02-01T00:07:47;29.67;;;10.40;;
23181;SDS011;11759;51.282;6.642;2023-02-01T00:10:15;32.78;;;9.88;;
23181;SDS011;11759;51.282;6.642;2023-02-01T00:12:41;25.15;;;9.43;;
23181;SDS011;11759;51.282;6.642;2023-02-01T00:15:08;29.92;;;9.98;;
23181;SDS011;11759;51.282;6.642;2023-02-01T00:17:35;38.90;;;10.05;;
23181;SDS011;11759;51.282;6.642;2023-02-01T00:20:02;29.10;;;9.75;;
23181;SDS011;11759;51.282;6.642;2023-02-01T00:22:29;24.83;;;10.70;;
23181;SDS011;11759;51.282;6.642;2023-02-01T00:24:55;35.17;;;11.00;;
23181;SDS011;11759;51.282;6.642;2023-02-01T00:27:22;31.50;;;11.10;;
23181;SDS011;11759;51.282;6.642;2023-02-01T00:29:48;31.67;;;11.48;;
23181;SDS011;11759;51.282;6.642;2023-02-01T00:32:15;34.85;;;11.93;;
23181;SDS011;11759;51.282;6.642;2023-02-01T00:34:41;27.15;;;11.52;;
23181;SDS011;11759;51.282;6.642;2023-02-01T00:37:08;34.00;;;12.18;;
23181;SDS011;11759;51.282;6.642;2023-02-01T00:39:35;36.45;;;12.00;;
23181;SDS011;11759;51.282;6.642;2023-02-01T00:42:01;31.23;;;11.48;;
23181;SDS011;11759;51.282;6.642;2023-02-01T00:44:28;30.35;;;11.43;;
23181;SDS011;11759;51.282;6.642;2023-02-01T00:46:59;36.05;;;11.57;;
23181;SDS011;11759;51.282;6.642;2023-02-01T00:49:26;25.50;;;11.10;;
23181;SDS011;11759;51.282;6.642;2023-02-01T00:51:53;37.78;;;11.23;;
23181;SDS011;11759;51.282;6.642;2023-02-01T00:54:19;24.08;;;10.50;;
23181;SDS011;11759;51.282;6.642;2023-02-01T00:56:46;33.33;;;10.27;;
23181;SDS011;11759;51.282;6.642;2023-02-01T00:59:13;38.30;;;10.70;;
23181;SDS011;11759;51.282;6.642;2023-02-01T01:01:39;30.88;;;10.13;;
23181;SDS011;11759;51.282;6.642;2023-02-01T01:04:06;29.95;;;10.77;;
23181;SDS011;11759;51.282;6.642;2023-02-01T01:06:33;31.00;;;9.40;;
23181;SDS011;11759;51.282;6.642;2023-02-01T01:09:03;24.08;;;9.05;;
23181;SDS011;11759;51.282;6.642;2023-02-01T01:11:31;26.73;;;8.85;;
23181;SDS011;11759;51.282;6.642;2023-02-01T01:14:00;26.83;;;7.82;;
23181;SDS011;11759;51.282;6.642;2023-02-01T01:16:27;27.00;;;7.90;;
23181;SDS011;11759;51.282;6.642;2023-02-01T01:18:55;28.67;;;7.38;;
23181;SDS011;11759;51.282;6.642;2023-02-01T01:21:22;27.80;;;7.70;;
23181;SDS011;11759;51.282;6.642;2023-02-01T01:23:49;26.02;;;6.60;;
23181;SDS011;11759;51.282;6.642;2023-02-01T01:26:17;21.35;;;7.28;;
23181;SDS011;11759;51.282;6.642;2023-02-01T01:28:46;27.20;;;6.82;;
23181;SDS011;11759;51.282;6.642;2023-02-01T01:31:14;22.65;;;6.00;;
23181;SDS011;11759;51.282;6.642;2023-02-01T01:33:43;25.73;;;6.93;;
23181;SDS011;11759;51.282;6.642;2023-02-01T01:36:11;19.77;;;6.10;;
23181;SDS011;11759;51.282;6.642;2023-02-01T01:38:38;36.28;;;6.50;;
23181;SDS011;11759;51.282;6.642;2023-02-01T01:41:06;23.13;;;5.70;;
23181;SDS011;11759;51.282;6.642;2023-02-01T01:46:29;19.83;;;5.57;;
23181;SDS011;11759;51.282;6.642;2023-02-01T01:49:04;28.70;;;5.82;;
23181;SDS011;11759;51.282;6.642;2023-02-01T01:51:32;14.48;;;5.43;;
23181;SDS011;11759;51.282;6.642;2023-02-01T01:54:14;20.45;;;4.75;;
23181;SDS011;11759;51.282;6.642;2023-02-01T01:56:45;23.60;;;5.18;;
23181;SDS011;11759;51.282;6.642;2023-02-01T01:59:15;22.75;;;5.38;;
23181;SDS011;11759;51.282;6.642;2023-02-01T02:01:41;22.67;;;4.97;;
23181;SDS011;11759;51.282;6.642;2023-02-01T02:04:08;21.45;;;4.55;;
23181;SDS011;11759;51.282;6.642;2023-02-01T02:09:14;24.73;;;5.32;;
23181;SDS011;11759;51.282;6.642;2023-02-01T02:11:41;24.58;;;5.70;;
23181;SDS011;11759;51.282;6.642;2023-02-01T02:14:09;23.40;;;5.65;;
23181;SDS011;11759;51.282;6.642;2023-02-01T02:16:50;24.65;;;4.43;;
23181;SDS011;11759;51.282;6.642;2023-02-01T02:19:30;28.05;;;5.50;;
23181;SDS011;11759;51.282;6.642;2023-02-01T02:22:24;27.65;;;5.05;;
23181;SDS011;11759;51.282;6.642;2023-02-01T02:28:44;30.33;;;4.53;;
23181;SDS011;11759;51.282;6.642;2023-02-01T02:34:37;23.83;;;4.72;;
23181;SDS011;11759;51.282;6.642;2023-02-01T02:37:28;22.42;;;4.88;;
23181;SDS011;11759;51.282;6.642;2023-02-01T02:40:15;27.27;;;5.38;;
23181;SDS011;11759;51.282;6.642;2023-02-01T02:42:50;29.20;;;5.03;;
23181;SDS011;11759;51.282;6.642;2023-02-01T02:48:44;28.80;;;4.82;;
23181;SDS011;11759;51.282;6.642;2023-02-01T02:51:43;26.33;;;4.85;;
23181;SDS011;11759;51.282;6.642;2023-02-01T02:54:42;26.05;;;4.60;;
23181;SDS011;11759;51.282;6.642;2023-02-01T02:57:19;31.38;;;5.50;;
23181;SDS011;11759;51.282;6.642;2023-02-01T03:00:11;31.30;;;4.97;;
23181;SDS011;11759;51.282;6.642;2023-02-01T03:02:59;23.23;;;4.70;;
23181;SDS011;11759;51.282;6.642;2023-02-01T03:05:46;23.00;;;4.60;;
23181;SDS011;11759;51.282;6.642;2023-02-01T03:08:15;33.50;;;6.60;;
23181;SDS011;11759;51.282;6.642;2023-02-01T03:13:36;28.48;;;4.63;;
23181;SDS011;11759;51.282;6.642;2023-02-01T03:16:07;26.25;;;5.40;;
23181;SDS011;11759;51.282;6.642;2023-02-01T03:21:38;20.80;;;4.55;;
23181;SDS011;11759;51.282;6.642;2023-02-01T03:24:15;23.73;;;4.57;;
23181;SDS011;11759;51.282;6.642;2023-02-01T03:26:49;17.60;;;5.40;;
23181;SDS011;11759;51.282;6.642;2023-02-01T03:29:22;32.90;;;5.70;;
23181;SDS011;11759;51.282;6.642;2023-02-01T03:31:53;22.70;;;5.60;;
23181;SDS011;11759;51.282;6.642;2023-02-01T03:34:20;17.38;;;5.22;;
23181;SDS011;11759;51.282;6.642;2023-02-01T03:36:48;28.15;;;5.53;;
23181;SDS011;11759;51.282;6.642;2023-02-01T03:42:02;26.40;;;5.55;;
23181;SDS011;11759;51.282;6.642;2023-02-01T03:46:59;28.85;;;5.88;;
23181;SDS011;11759;51.282;6.642;2023-02-01T03:49:40;28.33;;;5.75;;
23181;SDS011;11759;51.282;6.642;2023-02-01T03:52:11;25.20;;;5.57;;
23181;SDS011;11759;51.282;6.642;2023-02-01T03:54:41;20.05;;;5.30;;
23181;SDS011;11759;51.282;6.642;2023-02-01T03:57:13;26.30;;;4.80;;
23181;SDS011;11759;51.282;6.642;2023-02-01T03:59:44;27.90;;;5.20;;
23181;SDS011;11759;51.282;6.642;2023-02-01T04:02:11;29.40;;;5.63;;
23181;SDS011;11759;51.282;6.642;2023-02-01T04:04:37;24.10;;;5.15;;
23181;SDS011;11759;51.282;6.642;2023-02-01T04:07:05;26.83;;;5.43;;
23181;SDS011;11759;51.282;6.642;2023-02-01T04:09:31;29.50;;;5.45;;
23181;SDS011;11759;51.282;6.642;2023-02-01T04:11:58;29.05;;;5.35;;
23181;SDS011;11759;51.282;6.642;2023-02-01T04:14:24;33.92;;;5.00;;
23181;SDS011;11759;51.282;6.642;2023-02-01T04:16:51;30.70;;;4.95;;
23181;SDS011;11759;51.282;6.642;2023-02-01T04:19:17;32.78;;;5.18;;
23181;SDS011;11759;51.282;6.642;2023-02-01T04:21:44;36.25;;;5.40;;
23181;SDS011;11759;51.282;6.642;2023-02-01T04:24:11;28.23;;;4.38;;
23181;SDS011;11759;51.282;6.642;2023-02-01T04:26:37;27.40;;;5.60;;
23181;SDS011;11759;51.282;6.642;2023-02-01T04:29:04;28.15;;;4.60;;
23181;SDS011;11759;51.282;6.642;2023-02-01T04:31:31;21.42;;;4.75;;
23181;SDS011;11759;51.282;6.642;2023-02-01T04:33:57;27.58;;;4.25;;
23181;SDS011;11759;51.282;6.642;2023-02-01T04:36:24;35.13;;;5.10;;
23181;SDS011;11759;51.282;6.642;2023-02-01T04:38:51;24.25;;;4.82;;
23181;SDS011;11759;51.282;6.642;2023-02-01T04:41:18;29.80;;;4.80;;
23181;SDS011;11759;51.282;6.642;2023-02-01T04:43:46;22.58;;;4.35;;
23181;SDS011;11759;51.282;6.642;2023-02-01T04:46:13;25.60;;;4.55;;
23181;SDS011;11759;51.282;6.642;2023-02-01T04:48:39;34.08;;;5.55;;
23181;SDS011;11759;51.282;6.642;2023-02-01T04:51:06;20.77;;;4.78;;
23181;SDS011;11759;51.282;6.642;2023-02-01T04:53:32;30.42;;;4.80;;
23181;SDS011;11759;51.282;6.642;2023-02-01T04:55:59;27.63;;;4.30;;
23181;SDS011;11759;51.282;6.642;2023-02-01T04:58:25;18.13;;;4.50;;
23181;SDS011;11759;51.282;6.642;2023-02-01T05:00:52;31.65;;;4.80;;
23181;SDS011;11759;51.282;6.642;2023-02-01T05:03:19;25.75;;;4.47;;
23181;SDS011;11759;51.282;6.642;2023-02-01T05:05:47;29.88;;;4.38;;
23181;SDS011;11759;51.282;6.642;2023-02-01T05:08:15;37.58;;;5.68;;
23181;SDS011;11759;51.282;6.642;2023-02-01T05:10:41;30.02;;;6.20;;
23181;SDS011;11759;51.282;6.642;2023-02-01T05:13:09;29.85;;;4.80;;
23181;SDS011;11759;51.282;6.642;2023-02-01T05:15:55;25.23;;;5.10;;
23181;SDS011;11759;51.282;6.642;2023-02-01T05:18:21;17.15;;;3.78;;
23181;SDS011;11759;51.282;6.642;2023-02-01T05:20:48;35.03;;;5.13;;
23181;SDS011;11759;51.282;6.642;2023-02-01T05:23:15;21.20;;;4.57;;
23181;SDS011;11759;51.282;6.642;2023-02-01T05:25:42;25.45;;;4.88;;
23181;SDS011;11759;51.282;6.642;2023-02-01T05:28:09;24.85;;;4.30;;
23181;SDS011;11759;51.282;6.642;2023-02-01T05:30:35;29.17;;;4.75;;
23181;SDS011;11759;51.282;6.642;2023-02-01T05:33:02;29.67;;;4.45;;
23181;SDS011;11759;51.282;6.642;2023-02-01T05:35:29;22.17;;;4.30;;
23181;SDS011;11759;51.282;6.642;2023-02-01T05:37:56;25.05;;;4.60;;
23181;SDS011;11759;51.282;6.642;2023-02-01T05:40:22;33.33;;;5.30;;
23181;SDS011;11759;51.282;6.642;2023-02-01T05:42:50;26.30;;;4.72;;
23181;SDS011;11759;51.282;6.642;2023-02-01T05:45:16;25.30;;;4.30;;
23181;SDS011;11759;51.282;6.642;2023-02-01T05:47:43;25.20;;;4.25;;
23181;SDS011;11759;51.282;6.642;2023-02-01T05:50:09;30.77;;;5.05;;
23181;SDS011;11759;51.282;6.642;2023-02-01T05:52:36;32.50;;;4.72;;
23181;SDS011;11759;51.282;6.642;2023-02-01T05:55:03;26.15;;;4.32;;
23181;SDS011;11759;51.282;6.642;2023-02-01T05:57:30;38.60;;;4.60;;
23181;SDS011;11759;51.282;6.642;2023-02-01T05:59:56;33.83;;;4.43;;
23181;SDS011;11759;51.282;6.642;2023-02-01T06:02:25;33.75;;;4.82;;
23181;SDS011;11759;51.282;6.642;2023-02-01T06:04:52;35.83;;;5.03;;
23181;SDS011;11759;51.282;6.642;2023-02-01T06:07:19;35.72;;;4.78;;
23181;SDS011;11759;51.282;6.642;2023-02-01T06:09:45;26.20;;;4.00;;
23181;SDS011;11759;51.282;6.642;2023-02-01T06:12:12;28.90;;;4.50;;
23181;SDS011;11759;51.282;6.642;2023-02-01T06:14:40;33.47;;;4.97;;
23181;SDS011;11759;51.282;6.642;2023-02-01T06:17:07;25.17;;;4.75;;
23181;SDS011;11759;51.282;6.642;2023-02-01T06:19:34;30.88;;;5.40;;
23181;SDS011;11759;51.282;6.642;2023-02-01T06:22:01;29.27;;;4.53;;
23181;SDS011;11759;51.282;6.642;2023-02-01T06:24:27;37.90;;;5.90;;
23181;SDS011;11759;51.282;6.642;2023-02-01T06:26:54;28.27;;;5.13;;
23181;SDS011;11759;51.282;6.642;2023-02-01T06:29:20;27.15;;;5.65;;
23181;SDS011;11759;51.282;6.642;2023-02-01T06:31:47;27.88;;;4.60;;
23181;SDS011;11759;51.282;6.642;2023-02-01T06:34:13;28.58;;;5.28;;
23181;SDS011;11759;51.282;6.642;2023-02-01T06:36:40;27.90;;;4.22;;
23181;SDS011;11759;51.282;6.642;2023-02-01T06:39:06;27.73;;;4.47;;
23181;SDS011;11759;51.282;6.642;2023-02-01T06:41:33;32.95;;;5.05;;
23181;SDS011;11759;51.282;6.642;2023-02-01T06:44:00;27.35;;;5.10;;
23181;SDS011;11759;51.282;6.642;2023-02-01T06:46:27;35.50;;;5.38;;
23181;SDS011;11759;51.282;6.642;2023-02-01T06:48:54;37.03;;;5.05;;
23181;SDS011;11759;51.282;6.642;2023-02-01T06:53:47;30.77;;;4.35;;
23181;SDS011;11759;51.282;6.642;2023-02-01T06:56:14;29.88;;;4.13;;
23181;SDS011;11759;51.282;6.642;2023-02-01T06:58:41;28.05;;;4.22;;
23181;SDS011;11759;51.282;6.642;2023-02-01T07:01:08;30.10;;;4.50;;
23181;SDS011;11759;51.282;6.642;2023-02-01T07:03:36;33.83;;;5.03;;
23181;SDS011;11759;51.282;6.642;2023-02-01T07:06:03;26.70;;;4.85;;
23181;SDS011;11759;51.282;6.642;2023-02-01T07:08:31;22.33;;;4.25;;
23181;SDS011;11759;51.282;6.642;2023-02-01T07:11:03;27.40;;;5.10;;
23181;SDS011;11759;51.282;6.642;2023-02-01T07:13:34;29.17;;;4.63;;
23181;SDS011;11759;51.282;6.642;2023-02-01T07:16:02;27.80;;;4.43;;
23181;SDS011;11759;51.282;6.642;2023-02-01T07:18:31;31.52;;;5.13;;
23181;SDS011;11759;51.282;6.642;2023-02-01T07:20:58;27.30;;;5.50;;
23181;SDS011;11759;51.282;6.642;2023-02-01T07:23:25;41.30;;;5.28;;
23181;SDS011;11759;51.282;6.642;2023-02-01T07:25:58;26.42;;;4.38;;
23181;SDS011;11759;51.282;6.642;2023-02-01T07:28:26;23.65;;;5.50;;
23181;SDS011;11759;51.282;6.642;2023-02-01T07:31:01;31.70;;;5.25;;
23181;SDS011;11759;51.282;6.642;2023-02-01T07:33:29;27.05;;;4.65;;
23181;SDS011;11759;51.282;6.642;2023-02-01T07:35:55;26.48;;;5.50;;
23181;SDS011;11759;51.282;6.642;2023-02-01T07:38:22;22.05;;;4.70;;
23181;SDS011;11759;51.282;6.642;2023-02-01T07:40:50;24.13;;;4.30;;
23181;SDS011;11759;51.282;6.642;2023-02-01T07:43:16;39.75;;;5.10;;
23181;SDS011;11759;51.282;6.642;2023-02-01T07:45:43;32.50;;;4.75;;
23181;SDS011;11759;51.282;6.642;2023-02-01T07:48:09;25.73;;;4.78;;
23181;SDS011;11759;51.282;6.642;2023-02-01T07:50:36;26.63;;;4.47;;
23181;SDS011;11759;51.282;6.642;2023-02-01T07:53:02;22.10;;;4.13;;
23181;SDS011;11759;51.282;6.642;2023-02-01T07:55:29;30.27;;;4.45;;
23181;SDS011;11759;51.282;6.642;2023-02-01T07:57:56;28.30;;;4.45;;
23181;SDS011;11759;51.282;6.642;2023-02-01T08:00:24;21.13;;;4.95;;
23181;SDS011;11759;51.282;6.642;2023-02-01T08:03:10;35.28;;;4.65;;
23181;SDS011;11759;51.282;6.642;2023-02-01T08:05:36;34.45;;;5.00;;
23181;SDS011;11759;51.282;6.642;2023-02-01T08:08:05;28.95;;;4.47;;
23181;SDS011;11759;51.282;6.642;2023-02-01T08:10:32;24.40;;;4.53;;
23181;SDS011;11759;51.282;6.642;2023-02-01T08:12:59;30.73;;;4.70;;
23181;SDS011;11759;51.282;6.642;2023-02-01T08:15:27;33.53;;;5.57;;
23181;SDS011;11759;51.282;6.642;2023-02-01T08:17:54;31.77;;;5.30;;
23181;SDS011;11759;51.282;6.642;2023-02-01T08:20:21;33.25;;;4.72;;
23181;SDS011;11759;51.282;6.642;2023-02-01T08:22:50;27.13;;;4.80;;
23181;SDS011;11759;51.282;6.642;2023-02-01T08:25:19;27.08;;;4.68;;
23181;SDS011;11759;51.282;6.642;2023-02-01T08:27:46;41.13;;;5.40;;
23181;SDS011;11759;51.282;6.642;2023-02-01T08:30:13;24.42;;;5.28;;
23181;SDS011;11759;51.282;6.642;2023-02-01T08:32:40;30.13;;;5.43;;
23181;SDS011;11759;51.282;6.642;2023-02-01T08:35:07;22.13;;;4.72;;
23181;SDS011;11759;51.282;6.642;2023-02-01T08:37:34;43.22;;;5.25;;
23181;SDS011;11759;51.282;6.642;2023-02-01T08:40:01;20.83;;;4.38;;
23181;SDS011;11759;51.282;6.642;2023-02-01T08:42:27;26.83;;;4.15;;
23181;SDS011;11759;51.282;6.642;2023-02-01T08:45:12;43.50;;;5.65;;
23181;SDS011;11759;51.282;6.642;2023-02-01T08:47:39;32.53;;;4.97;;
23181;SDS011;11759;51.282;6.642;2023-02-01T08:50:06;35.60;;;5.10;;
23181;SDS011;11759;51.282;6.642;2023-02-01T08:52:33;37.85;;;5.25;;
23181;SDS011;11759;51.282;6.642;2023-02-01T08:55:03;31.00;;;5.88;;
23181;SDS011;11759;51.282;6.642;2023-02-01T08:57:30;34.78;;;5.43;;
23181;SDS011;11759;51.282;6.642;2023-02-01T08:59:57;16.60;;;4.75;;
23181;SDS011;11759;51.282;6.642;2023-02-01T09:02:23;28.38;;;4.90;;
23181;SDS011;11759;51.282;6.642;2023-02-01T09:04:50;24.90;;;5.10;;
23181;SDS011;11759;51.282;6.642;2023-02-01T09:07:16;25.17;;;4.80;;
23181;SDS011;11759;51.282;6.642;2023-02-01T09:09:44;24.85;;;5.03;;
23181;SDS011;11759;51.282;6.642;2023-02-01T09:12:12;30.85;;;5.40;;
23181;SDS011;11759;51.282;6.642;2023-02-01T09:14:38;20.52;;;4.53;;
23181;SDS011;11759;51.282;6.642;2023-02-01T09:17:05;30.10;;;6.10;;
23181;SDS011;11759;51.282;6.642;2023-02-01T09:19:31;32.45;;;5.63;;
23181;SDS011;11759;51.282;6.642;2023-02-01T09:21:58;40.97;;;5.72;;
23181;SDS011;11759;51.282;6.642;2023-02-01T09:24:25;33.65;;;5.68;;
23181;SDS011;11759;51.282;6.642;2023-02-01T09:26:51;24.45;;;4.85;;
23181;SDS011;11759;51.282;6.642;2023-02-01T09:29:18;26.73;;;4.72;;
23181;SDS011;11759;51.282;6.642;2023-02-01T09:31:45;30.83;;;4.55;;
23181;SDS011;11759;51.282;6.642;2023-02-01T09:34:28;29.60;;;5.18;;
23181;SDS011;11759;51.282;6.642;2023-02-01T09:36:55;27.30;;;5.80;;
23181;SDS011;11759;51.282;6.642;2023-02-01T09:39:21;26.40;;;4.70;;
23181;SDS011;11759;51.282;6.642;2023-02-01T09:44:22;26.63;;;5.00;;
23181;SDS011;11759;51.282;6.642;2023-02-01T09:47:13;19.60;;;4.30;;
23181;SDS011;11759;51.282;6.642;2023-02-01T09:49:55;28.67;;;5.78;;
23181;SDS011;11759;51.282;6.642;2023-02-01T09:52:40;26.48;;;5.07;;
23181;SDS011;11759;51.282;6.642;2023-02-01T09:55:14;26.67;;;4.75;;
23181;SDS011;11759;51.282;6.642;2023-02-01T09:57:53;27.83;;;5.05;;
23181;SDS011;11759;51.282;6.642;2023-02-01T10:00:26;24.45;;;5.07;;
23181;SDS011;11759;51.282;6.642;2023-02-01T10:02:55;24.27;;;5.20;;
23181;SDS011;11759;51.282;6.642;2023-02-01T10:05:29;32.63;;;4.40;;
23181;SDS011;11759;51.282;6.642;2023-02-01T10:08:04;31.33;;;5.03;;
23181;SDS011;11759;51.282;6.642;2023-02-01T10:10:41;27.50;;;5.50;;
23181;SDS011;11759;51.282;6.642;2023-02-01T10:15:55;32.50;;;5.45;;
23181;SDS011;11759;51.282;6.642;2023-02-01T10:18:47;24.92;;;5.50;;
23181;SDS011;11759;51.282;6.642;2023-02-01T10:21:21;36.35;;;5.75;;
23181;SDS011;11759;51.282;6.642;2023-02-01T10:24:13;22.20;;;4.63;;
23181;SDS011;11759;51.282;6.642;2023-02-01T10:27:29;28.38;;;4.85;;
23181;SDS011;11759;51.282;6.642;2023-02-01T10:29:37;22.33;;;4.93;;
23181;SDS011;11759;51.282;6.642;2023-02-01T10:32:10;26.27;;;4.75;;
23181;SDS011;11759;51.282;6.642;2023-02-01T10:34:39;25.88;;;4.53;;
23181;SDS011;11759;51.282;6.642;2023-02-01T10:37:13;28.48;;;5.05;;
23181;SDS011;11759;51.282;6.642;2023-02-01T10:39:46;21.35;;;5.10;;
23181;SDS011;11759;51.282;6.642;2023-02-01T10:42:15;15.88;;;3.72;;
23181;SDS011;11759;51.282;6.642;2023-02-01T10:44:50;17.08;;;4.18;;
23181;SDS011;11759;51.282;6.642;2023-02-01T10:47:18;21.05;;;4.30;;
23181;SDS011;11759;51.282;6.642;2023-02-01T10:52:39;23.23;;;4.88;;
23181;SDS011;11759;51.282;6.642;2023-02-01T10:57:57;22.98;;;4.25;;
23181;SDS011;11759;51.282;6.642;2023-02-01T11:00:25;24.73;;;4.32;;
23181;SDS011;11759;51.282;6.642;2023-02-01T11:02:53;19.40;;;4.32;;
23181;SDS011;11759;51.282;6.642;2023-02-01T11:05:20;20.65;;;4.75;;
23181;SDS011;11759;51.282;6.642;2023-02-01T11:07:49;31.40;;;4.70;;
23181;SDS011;11759;51.282;6.642;2023-02-01T11:13:16;26.23;;;4.43;;
23181;SDS011;11759;51.282;6.642;2023-02-01T11:15:44;29.17;;;4.28;;
23181;SDS011;11759;51.282;6.642;2023-02-01T11:18:18;28.70;;;5.47;;
23181;SDS011;11759;51.282;6.642;2023-02-01T11:20:46;22.42;;;5.43;;
23181;SDS011;11759;51.282;6.642;2023-02-01T11:23:19;16.50;;;4.47;;
23181;SDS011;11759;51.282;6.642;2023-02-01T11:26:29;28.90;;;3.90;;
23181;SDS011;11759;51.282;6.642;2023-02-01T11:28:40;23.80;;;5.40;;
23181;SDS011;11759;51.282;6.642;2023-02-01T11:31:13;23.83;;;4.47;;
23181;SDS011;11759;51.282;6.642;2023-02-01T11:33:43;20.95;;;4.60;;
23181;SDS011;11759;51.282;6.642;2023-02-01T11:36:23;22.60;;;4.07;;
23181;SDS011;11759;51.282;6.642;2023-02-01T11:41:54;25.63;;;4.88;;
23181;SDS011;11759;51.282;6.642;2023-02-01T11:44:35;27.95;;;4.40;;
23181;SDS011;11759;51.282;6.642;2023-02-01T11:49:56;25.48;;;5.00;;
23181;SDS011;11759;51.282;6.642;2023-02-01T12:05:59;29.58;;;5.25;;
23181;SDS011;11759;51.282;6.642;2023-02-01T12:11:46;25.35;;;5.25;;
23181;SDS011;11759;51.282;6.642;2023-02-01T12:14:23;17.65;;;3.83;;
23181;SDS011;11759;51.282;6.642;2023-02-01T12:20:09;21.63;;;4.30;;
23181;SDS011;11759;51.282;6.642;2023-02-01T12:23:01;27.13;;;5.03;;
23181;SDS011;11759;51.282;6.642;2023-02-01T12:36:53;28.90;;;4.75;;
23181;SDS011;11759;51.282;6.642;2023-02-01T12:39:31;28.05;;;4.35;;
23181;SDS011;11759;51.282;6.642;2023-02-01T12:44:53;17.45;;;3.92;;
23181;SDS011;11759;51.282;6.642;2023-02-01T12:50:22;19.80;;;3.42;;
23181;SDS011;11759;51.282;6.642;2023-02-01T12:52:52;16.48;;;3.85;;
23181;SDS011;11759;51.282;6.642;2023-02-01T12:55:24;29.38;;;4.60;;
23181;SDS011;11759;51.282;6.642;2023-02-01T13:05:58;19.50;;;3.88;;
23181;SDS011;11759;51.282;6.642;2023-02-01T13:08:35;15.95;;;3.58;;
23181;SDS011;11759;51.282;6.642;2023-02-01T13:11:08;24.10;;;4.15;;
23181;SDS011;11759;51.282;6.642;2023-02-01T13:16:17;20.35;;;3.83;;
23181;SDS011;11759;51.282;6.642;2023-02-01T13:18:50;16.65;;;3.40;;
23181;SDS011;11759;51.282;6.642;2023-02-01T13:21:25;21.13;;;3.40;;
23181;SDS011;11759;51.282;6.642;2023-02-01T13:23:53;13.45;;;2.90;;
23181;SDS011;11759;51.282;6.642;2023-02-01T13:26:20;20.23;;;3.50;;
23181;SDS011;11759;51.282;6.642;2023-02-01T13:28:59;12.60;;;3.40;;
23181;SDS011;11759;51.282;6.642;2023-02-01T13:37:08;21.48;;;3.60;;
23181;SDS011;11759;51.282;6.642;2023-02-01T13:42:30;17.27;;;3.33;;
23181;SDS011;11759;51.282;6.642;2023-02-01T13:45:03;15.77;;;3.30;;
23181;SDS011;11759;51.282;6.642;2023-02-01T13:47:40;17.90;;;2.90;;
23181;SDS011;11759;51.282;6.642;2023-02-01T13:52:44;22.63;;;3.15;;
23181;SDS011;11759;51.282;6.642;2023-02-01T13:57:49;17.63;;;2.88;;
23181;SDS011;11759;51.282;6.642;2023-02-01T14:03:01;16.05;;;3.70;;
23181;SDS011;11759;51.282;6.642;2023-02-01T14:08:02;18.55;;;2.72;;
23181;SDS011;11759;51.282;6.642;2023-02-01T14:10:49;17.40;;;3.50;;
23181;SDS011;11759;51.282;6.642;2023-02-01T14:13:27;20.52;;;3.22;;
23181;SDS011;11759;51.282;6.642;2023-02-01T14:26:47;14.63;;;2.85;;
23181;SDS011;11759;51.282;6.642;2023-02-01T14:37:02;26.55;;;3.03;;
23181;SDS011;11759;51.282;6.642;2023-02-01T14:39:31;14.25;;;3.10;;
23181;SDS011;11759;51.282;6.642;2023-02-01T14:42:05;21.33;;;3.10;;
23181;SDS011;11759;51.282;6.642;2023-02-01T14:44:39;25.08;;;3.30;;
23181;SDS011;11759;51.282;6.642;2023-02-01T14:52:40;21.77;;;3.05;;
23181;SDS011;11759;51.282;6.642;2023-02-01T14:55:24;25.30;;;3.80;;
23181;SDS011;11759;51.282;6.642;2023-02-01T14:57:56;29.48;;;2.97;;
23181;SDS011;11759;51.282;6.642;2023-02-01T15:00:28;19.55;;;2.85;;
23181;SDS011;11759;51.282;6.642;2023-02-01T15:03:11;18.27;;;3.00;;
23181;SDS011;11759;51.282;6.642;2023-02-01T15:05:54;14.82;;;2.95;;
23181;SDS011;11759;51.282;6.642;2023-02-01T15:08:28;12.50;;;3.00;;
23181;SDS011;11759;51.282;6.642;2023-02-01T15:10:57;18.83;;;3.13;;
23181;SDS011;11759;51.282;6.642;2023-02-01T15:13:27;28.73;;;4.40;;
23181;SDS011;11759;51.282;6.642;2023-02-01T15:18:37;35.75;;;4.15;;
23181;SDS011;11759;51.282;6.642;2023-02-01T15:21:04;23.48;;;4.47;;
23181;SDS011;11759;51.282;6.642;2023-02-01T15:24:03;24.58;;;2.85;;
23181;SDS011;11759;51.282;6.642;2023-02-01T15:26:36;26.70;;;4.03;;
23181;SDS011;11759;51.282;6.642;2023-02-01T15:29:03;27.20;;;3.40;;
23181;SDS011;11759;51.282;6.642;2023-02-01T15:31:36;29.48;;;4.30;;
23181;SDS011;11759;51.282;6.642;2023-02-01T15:34:21;22.77;;;3.50;;
23181;SDS011;11759;51.282;6.642;2023-02-01T15:36:48;18.60;;;3.70;;
23181;SDS011;11759;51.282;6.642;2023-02-01T15:39:28;29.23;;;4.17;;
23181;SDS011;11759;51.282;6.642;2023-02-01T15:41:58;24.55;;;3.47;;
23181;SDS011;11759;51.282;6.642;2023-02-01T15:44:37;28.40;;;4.20;;
23181;SDS011;11759;51.282;6.642;2023-02-01T15:47:14;37.05;;;4.32;;
23181;SDS011;11759;51.282;6.642;2023-02-01T15:49:43;28.10;;;3.30;;
23181;SDS011;11759;51.282;6.642;2023-02-01T15:52:23;12.10;;;3.22;;
23181;SDS011;11759;51.282;6.642;2023-02-01T15:54:53;20.52;;;3.55;;
23181;SDS011;11759;51.282;6.642;2023-02-01T15:57:39;23.90;;;4.15;;
23181;SDS011;11759;51.282;6.642;2023-02-01T16:00:18;19.80;;;3.55;;
23181;SDS011;11759;51.282;6.642;2023-02-01T16:02:55;21.05;;;3.28;;
23181;SDS011;11759;51.282;6.642;2023-02-01T16:05:35;22.45;;;3.70;;
23181;SDS011;11759;51.282;6.642;2023-02-01T16:10:42;19.13;;;3.90;;
23181;SDS011;11759;51.282;6.642;2023-02-01T16:13:11;20.33;;;3.83;;
23181;SDS011;11759;51.282;6.642;2023-02-01T16:15:39;21.33;;;4.13;;
23181;SDS011;11759;51.282;6.642;2023-02-01T16:18:05;21.80;;;4.80;;
23181;SDS011;11759;51.282;6.642;2023-02-01T16:20:35;26.48;;;3.33;;
23181;SDS011;11759;51.282;6.642;2023-02-01T16:23:02;18.42;;;4.20;;
23181;SDS011;11759;51.282;6.642;2023-02-01T16:25:29;25.52;;;3.30;;
23181;SDS011;11759;51.282;6.642;2023-02-01T16:27:56;15.02;;;3.38;;
23181;SDS011;11759;51.282;6.642;2023-02-01T16:30:23;18.85;;;3.60;;
23181;SDS011;11759;51.282;6.642;2023-02-01T16:32:53;19.48;;;3.33;;
23181;SDS011;11759;51.282;6.642;2023-02-01T16:35:25;24.35;;;4.15;;
23181;SDS011;11759;51.282;6.642;2023-02-01T16:37:54;20.35;;;3.35;;
23181;SDS011;11759;51.282;6.642;2023-02-01T16:40:21;20.02;;;4.10;;
23181;SDS011;11759;51.282;6.642;2023-02-01T16:42:49;18.50;;;3.00;;
23181;SDS011;11759;51.282;6.642;2023-02-01T16:45:17;24.38;;;3.72;;
23181;SDS011;11759;51.282;6.642;2023-02-01T16:47:46;22.27;;;3.53;;
23181;SDS011;11759;51.282;6.642;2023-02-01T16:50:23;28.60;;;3.80;;
23181;SDS011;11759;51.282;6.642;2023-02-01T16:52:51;19.48;;;3.28;;
23181;SDS011;11759;51.282;6.642;2023-02-01T16:55:20;21.33;;;3.67;;
23181;SDS011;11759;51.282;6.642;2023-02-01T16:57:50;19.23;;;3.30;;
23181;SDS011;11759;51.282;6.642;2023-02-01T17:00:17;31.85;;;3.53;;
23181;SDS011;11759;51.282;6.642;2023-02-01T17:02:50;19.80;;;3.30;;
23181;SDS011;11759;51.282;6.642;2023-02-01T17:05:17;24.25;;;3.95;;
23181;SDS011;11759;51.282;6.642;2023-02-01T17:07:44;21.48;;;3.50;;
23181;SDS011;11759;51.282;6.642;2023-02-01T17:10:23;20.90;;;4.00;;
23181;SDS011;11759;51.282;6.642;2023-02-01T17:12:59;21.92;;;3.65;;
23181;SDS011;11759;51.282;6.642;2023-02-01T17:15:26;23.85;;;3.90;;
23181;SDS011;11759;51.282;6.642;2023-02-01T17:17:54;31.83;;;4.10;;